createdAt,value
2023-03-24T00:01:56.261Z,19.90
2023-03-24T00:04:25.005Z,21.33
2023-03-24T00:06:54.117Z,23.17
2023-03-24T00:09:21.242Z,19.25
2023-03-24T00:11:48.487Z,22.35
2023-03-24T00:14:15.862Z,22.75
2023-03-24T00:16:43.203Z,23.65
2023-03-24T00:19:11.508Z,24.27
2023-03-24T00:21:38.791Z,23.20
2023-03-24T00:24:07.950Z,22.02
2023-03-24T00:26:37.553Z,22.65
2023-03-24T00:29:05.556Z,19.77
2023-03-24T00:31:32.806Z,19.92
2023-03-24T00:34:02.208Z,20.60
2023-03-24T00:36:29.456Z,25.30
2023-03-24T00:38:57.944Z,22.27
2023-03-24T00:41:27.088Z,20.55
2023-03-24T00:43:55.960Z,22.83
2023-03-24T00:46:29.512Z,22.08
2023-03-24T00:49:06.219Z,19.85
2023-03-24T00:51:38.345Z,19.55
2023-03-24T00:54:06.402Z,18.80
2023-03-24T00:56:34.468Z,22.08
2023-03-24T00:59:02.232Z,18.00
2023-03-24T01:01:33.080Z,21.95
2023-03-24T01:04:00.305Z,18.30
2023-03-24T01:06:27.435Z,19.80
2023-03-24T01:08:54.998Z,19.08
2023-03-24T01:11:24.292Z,19.33
2023-03-24T01:13:53.301Z,21.52
2023-03-24T01:16:20.709Z,17.95
2023-03-24T01:18:49.493Z,21.70
2023-03-24T01:21:18.242Z,20.70
2023-03-24T01:23:45.463Z,17.33
2023-03-24T01:26:12.562Z,22.55
2023-03-24T01:28:41.133Z,20.08
2023-03-24T01:31:11.894Z,21.67
2023-03-24T01:33:39.519Z,21.15
2023-03-24T01:36:07.318Z,22.52
2023-03-24T01:38:35.060Z,20.02
2023-03-24T01:41:02.693Z,19.35
2023-03-24T01:43:31.386Z,17.67
2023-03-24T01:46:01.530Z,20.73
2023-03-24T01:48:37.721Z,19.13
2023-03-24T01:51:13.556Z,22.70
2023-03-24T01:53:44.243Z,18.92
2023-03-24T01:56:12.200Z,21.20
2023-03-24T01:58:41.517Z,17.73
2023-03-24T02:01:08.689Z,19.92
2023-03-24T02:03:38.640Z,20.73
2023-03-24T02:06:05.965Z,20.35
2023-03-24T02:09:02.223Z,21.15
2023-03-24T02:11:31.748Z,19.48
2023-03-24T02:13:58.882Z,23.48
2023-03-24T02:16:38.302Z,19.80
2023-03-24T02:19:12.360Z,23.17
2023-03-24T02:21:48.278Z,20.80
2023-03-24T02:24:27.159Z,22.42
2023-03-24T02:27:02.266Z,21.58
2023-03-24T02:29:52.676Z,29.42
2023-03-24T02:32:27.945Z,20.02
2023-03-24T02:35:11.231Z,23.98
2023-03-24T02:37:57.269Z,20.98
2023-03-24T02:40:27.566Z,23.73
2023-03-24T02:43:01.340Z,21.57
2023-03-24T02:45:35.252Z,19.20
2023-03-24T02:48:02.433Z,22.05
2023-03-24T02:50:31.848Z,20.63
2023-03-24T02:53:08.881Z,20.75
2023-03-24T02:55:52.933Z,19.75
2023-03-24T02:58:22.947Z,20.27
2023-03-24T03:00:53.241Z,22.75
2023-03-24T03:03:23.564Z,21.40
2023-03-24T03:05:54.458Z,24.40
2023-03-24T03:08:22.676Z,22.63
2023-03-24T03:10:51.091Z,21.55
2023-03-24T03:13:27.664Z,21.48
2023-03-24T03:15:56.689Z,22.10
2023-03-24T03:18:28.756Z,22.10
2023-03-24T03:20:58.535Z,20.60
2023-03-24T03:23:29.869Z,19.85
2023-03-24T03:26:05.593Z,20.63
2023-03-24T03:28:34.870Z,19.85
2023-03-24T03:31:06.266Z,20.65
2023-03-24T03:33:41.536Z,21.77
2023-03-24T03:36:11.333Z,21.95
2023-03-24T03:38:38.417Z,23.90
2023-03-24T03:41:05.903Z,20.00
2023-03-24T03:43:33.771Z,20.35
2023-03-24T03:46:01.739Z,23.02
2023-03-24T03:48:29.239Z,24.38
2023-03-24T03:51:10.279Z,19.63
2023-03-24T03:53:50.769Z,22.10
2023-03-24T03:56:19.396Z,20.10
2023-03-24T03:58:48.569Z,22.25
2023-03-24T04:01:18.797Z,22.75
2023-03-24T04:04:04.991Z,21.63
2023-03-24T04:06:36.065Z,20.17
2023-03-24T04:09:09.960Z,20.58
2023-03-24T04:11:46.263Z,20.52
2023-03-24T04:14:22.519Z,21.58
2023-03-24T04:17:04.637Z,21.83
2023-03-24T04:19:38.102Z,22.48
2023-03-24T04:22:09.026Z,17.90
2023-03-24T04:24:50.089Z,22.42
2023-03-24T04:27:38.268Z,20.95
2023-03-24T04:30:11.128Z,21.25
2023-03-24T04:32:41.284Z,21.77
2023-03-24T04:35:10.901Z,21.47
2023-03-24T04:37:39.321Z,18.80
2023-03-24T04:40:11.603Z,17.35
2023-03-24T04:42:41.724Z,20.40
2023-03-24T04:45:09.471Z,23.17
2023-03-24T04:47:43.285Z,20.42
2023-03-24T04:50:11.725Z,21.13
2023-03-24T04:52:43.079Z,20.65
2023-03-24T04:55:28.531Z,21.70
2023-03-24T04:57:55.677Z,21.80
2023-03-24T05:00:22.786Z,22.33
2023-03-24T05:02:52.148Z,22.73
2023-03-24T05:05:19.635Z,24.95
2023-03-24T05:07:46.725Z,17.85
2023-03-24T05:10:13.860Z,21.88
2023-03-24T05:12:41.026Z,19.98
2023-03-24T05:15:09.047Z,22.05
2023-03-24T05:17:36.170Z,26.20
2023-03-24T05:20:06.935Z,24.63
2023-03-24T05:22:34.016Z,28.35
2023-03-24T05:25:01.307Z,22.33
2023-03-24T05:27:28.544Z,25.10
2023-03-24T05:29:55.776Z,23.17
2023-03-24T05:32:23.182Z,22.65
2023-03-24T05:34:50.507Z,26.23
2023-03-24T05:37:18.197Z,21.92
2023-03-24T05:39:45.497Z,23.23
2023-03-24T05:42:12.733Z,32.47
2023-03-24T05:44:39.859Z,23.55
2023-03-24T05:47:06.938Z,23.02
2023-03-24T05:49:34.087Z,23.35
2023-03-24T05:52:01.296Z,27.35
2023-03-24T05:54:28.377Z,23.70
2023-03-24T05:56:55.545Z,22.45
2023-03-24T05:59:22.751Z,25.50
2023-03-24T06:01:49.841Z,27.65
2023-03-24T06:04:17.041Z,24.10
2023-03-24T06:06:45.560Z,23.98
2023-03-24T06:09:14.759Z,25.52
2023-03-24T06:11:41.925Z,24.98
2023-03-24T06:14:09.021Z,22.85
2023-03-24T06:16:39.200Z,22.13
2023-03-24T06:19:06.852Z,23.03
2023-03-24T06:21:35.282Z,21.85
2023-03-24T06:24:03.184Z,27.88
2023-03-24T06:26:30.920Z,25.83
2023-03-24T06:28:58.942Z,25.77
2023-03-24T06:31:27.683Z,22.95
2023-03-24T06:33:54.997Z,21.83
2023-03-24T06:36:23.578Z,24.38
2023-03-24T06:38:51.234Z,22.27
2023-03-24T06:41:18.588Z,25.02
2023-03-24T06:43:45.793Z,22.25
2023-03-24T06:46:12.887Z,29.40
2023-03-24T06:48:40.155Z,22.90
2023-03-24T06:51:07.674Z,25.95
2023-03-24T06:53:34.784Z,26.98
2023-03-24T06:56:01.930Z,32.05
2023-03-24T06:58:29.209Z,31.88
2023-03-24T07:00:56.511Z,33.00
2023-03-24T07:03:25.222Z,31.10
2023-03-24T07:05:52.519Z,34.95
2023-03-24T07:08:36.527Z,30.73
2023-03-24T07:11:07.011Z,37.92
2023-03-24T07:13:34.128Z,33.05
2023-03-24T07:16:01.241Z,29.70
2023-03-24T07:18:28.549Z,31.80
2023-03-24T07:20:55.624Z,26.15
2023-03-24T07:23:22.744Z,26.73
2023-03-24T07:25:49.951Z,24.10
2023-03-24T07:28:17.065Z,22.65
2023-03-24T07:30:44.176Z,22.23
2023-03-24T07:33:12.737Z,23.23
2023-03-24T07:35:41.145Z,23.35
2023-03-24T07:38:08.784Z,22.67
2023-03-24T07:40:36.144Z,22.50
2023-03-24T07:43:07.821Z,24.58
2023-03-24T07:45:35.006Z,24.05
2023-03-24T07:48:02.463Z,22.10
2023-03-24T07:50:30.287Z,22.48
2023-03-24T07:52:59.860Z,23.38
2023-03-24T07:55:27.666Z,22.02
2023-03-24T07:57:55.422Z,22.48
2023-03-24T08:00:24.980Z,30.27
2023-03-24T08:02:53.103Z,25.85
2023-03-24T08:05:21.904Z,21.90
2023-03-24T08:07:53.476Z,20.60
2023-03-24T08:10:22.738Z,20.92
2023-03-24T08:12:50.033Z,19.35
2023-03-24T08:15:17.589Z,21.88
2023-03-24T08:17:45.271Z,25.73
2023-03-24T08:20:15.824Z,19.27
2023-03-24T08:22:43.914Z,22.83
2023-03-24T08:25:11.809Z,19.05
2023-03-24T08:27:40.172Z,23.10
2023-03-24T08:30:08.608Z,23.15
2023-03-24T08:32:36.051Z,25.48
2023-03-24T08:35:05.163Z,22.63
2023-03-24T08:37:32.721Z,25.13
2023-03-24T08:40:06.428Z,23.30
2023-03-24T08:42:33.737Z,25.30
2023-03-24T08:45:01.219Z,21.88
2023-03-24T08:47:29.645Z,22.42
2023-03-24T08:50:00.396Z,23.52
2023-03-24T08:52:27.768Z,25.70
2023-03-24T08:54:54.859Z,25.85
2023-03-24T08:57:21.986Z,22.13
2023-03-24T08:59:51.330Z,23.63
2023-03-24T09:02:18.649Z,22.60
2023-03-24T09:04:46.014Z,23.20
2023-03-24T09:07:13.192Z,26.27
2023-03-24T09:09:40.297Z,26.58
2023-03-24T09:12:07.982Z,21.85
2023-03-24T09:14:35.252Z,23.08
2023-03-24T09:17:02.352Z,22.45
2023-03-24T09:19:29.575Z,24.40
2023-03-24T09:21:56.670Z,22.50
2023-03-24T09:24:23.748Z,22.20
2023-03-24T09:26:51.060Z,20.50
2023-03-24T09:29:18.656Z,21.13
2023-03-24T09:31:46.471Z,19.48
2023-03-24T09:34:13.677Z,17.77
2023-03-24T09:36:40.812Z,18.20
2023-03-24T09:39:08.778Z,20.20
2023-03-24T09:41:36.012Z,18.40
2023-03-24T09:44:18.481Z,20.13
2023-03-24T09:47:08.884Z,19.95
2023-03-24T09:49:38.151Z,18.93
2023-03-24T09:52:06.355Z,20.17
2023-03-24T09:54:39.972Z,23.17
2023-03-24T09:57:12.459Z,20.55
2023-03-24T09:59:40.484Z,23.42
2023-03-24T10:02:14.691Z,22.27
2023-03-24T10:04:41.859Z,23.30
2023-03-24T10:07:23.513Z,23.05
2023-03-24T10:10:00.983Z,21.05
2023-03-24T10:12:38.124Z,19.50
2023-03-24T10:15:08.682Z,18.75
2023-03-24T10:17:44.939Z,20.42
2023-03-24T10:20:30.587Z,17.20
2023-03-24T10:23:04.362Z,18.55
2023-03-24T10:25:31.656Z,21.50
2023-03-24T10:28:04.685Z,15.63
2023-03-24T10:30:37.180Z,15.57
2023-03-24T10:33:04.651Z,14.77
2023-03-24T10:35:37.373Z,18.02
2023-03-24T10:38:14.313Z,18.67
2023-03-24T10:40:41.733Z,19.88
2023-03-24T10:43:09.731Z,17.08
2023-03-24T10:45:38.710Z,16.95
2023-03-24T10:48:07.482Z,19.25
2023-03-24T10:50:36.171Z,15.65
2023-03-24T10:53:09.902Z,14.40
2023-03-24T10:55:43.407Z,18.17
2023-03-24T10:58:28.945Z,16.02
2023-03-24T11:00:56.643Z,17.08
2023-03-24T11:03:35.865Z,17.05
2023-03-24T11:06:04.070Z,16.80
2023-03-24T11:08:38.748Z,15.70
2023-03-24T11:11:16.421Z,18.15
2023-03-24T11:13:54.226Z,17.77
2023-03-24T11:16:27.458Z,16.63
2023-03-24T11:19:02.365Z,14.15
2023-03-24T11:21:30.584Z,15.60
2023-03-24T11:24:02.543Z,12.00
2023-03-24T11:26:32.382Z,13.13
2023-03-24T11:29:01.967Z,16.52
2023-03-24T11:31:33.115Z,13.10
2023-03-24T11:34:02.758Z,12.85
2023-03-24T11:36:33.263Z,15.60
2023-03-24T11:39:01.996Z,11.52
2023-03-24T11:41:29.194Z,15.70
2023-03-24T11:44:16.749Z,14.10
2023-03-24T11:46:45.635Z,12.65
2023-03-24T11:49:14.509Z,15.65
2023-03-24T11:51:43.129Z,12.40
2023-03-24T11:54:14.724Z,13.32
2023-03-24T11:56:43.477Z,15.32
2023-03-24T11:59:19.390Z,17.55
2023-03-24T12:01:51.976Z,13.18
2023-03-24T12:04:37.800Z,13.98
2023-03-24T12:07:31.471Z,12.20
2023-03-24T12:10:18.818Z,10.82
2023-03-24T12:13:09.209Z,12.05
2023-03-24T12:16:00.724Z,13.90
2023-03-24T12:18:34.683Z,10.95
2023-03-24T12:21:04.834Z,14.50
2023-03-24T12:23:38.487Z,12.23
2023-03-24T12:26:17.406Z,12.95
2023-03-24T12:28:52.794Z,15.43
2023-03-24T12:31:27.073Z,12.95
2023-03-24T12:34:09.810Z,11.55
2023-03-24T12:36:43.982Z,14.05
2023-03-24T12:39:18.782Z,14.75
2023-03-24T12:41:52.128Z,12.57
2023-03-24T12:44:38.216Z,11.98
2023-03-24T12:47:16.076Z,11.57
2023-03-24T12:50:01.961Z,10.60
2023-03-24T12:52:29.065Z,10.93
2023-03-24T12:55:09.609Z,11.32
2023-03-24T12:58:12.097Z,15.50
2023-03-24T13:00:42.653Z,11.15
2023-03-24T13:03:15.090Z,9.13
2023-03-24T13:05:47.780Z,7.38
2023-03-24T13:08:17.991Z,9.60
2023-03-24T13:10:47.352Z,9.90
2023-03-24T13:13:25.632Z,8.48
2023-03-24T13:16:01.279Z,11.13
2023-03-24T13:18:31.527Z,9.27
2023-03-24T13:21:01.249Z,8.00
2023-03-24T13:23:33.545Z,8.15
2023-03-24T13:26:12.441Z,10.48
2023-03-24T13:28:45.496Z,11.10
2023-03-24T13:31:13.479Z,9.85
2023-03-24T13:33:41.627Z,9.20
2023-03-24T13:36:08.899Z,8.63
2023-03-24T13:38:50.357Z,11.82
2023-03-24T13:41:23.991Z,13.70
2023-03-24T13:43:52.487Z,9.80
2023-03-24T13:46:20.374Z,9.05
2023-03-24T13:48:51.026Z,8.93
2023-03-24T13:51:31.770Z,9.73
2023-03-24T13:54:07.746Z,10.07
2023-03-24T13:56:36.370Z,11.70
2023-03-24T13:59:03.531Z,10.23
2023-03-24T14:01:42.161Z,10.55
2023-03-24T14:04:29.282Z,10.05
2023-03-24T14:06:58.942Z,9.82
2023-03-24T14:09:35.921Z,11.02
2023-03-24T14:12:07.443Z,11.15
2023-03-24T14:14:36.616Z,10.05
2023-03-24T14:17:06.542Z,10.65
2023-03-24T14:19:41.886Z,12.25
2023-03-24T14:22:18.253Z,12.13
2023-03-24T14:24:46.731Z,13.95
2023-03-24T14:27:32.480Z,9.25
2023-03-24T14:30:06.193Z,9.25
2023-03-24T14:32:38.030Z,22.17
2023-03-24T14:35:06.561Z,12.77
2023-03-24T14:37:33.687Z,11.95
2023-03-24T14:40:01.027Z,13.27
2023-03-24T14:42:34.042Z,15.38
2023-03-24T14:45:27.358Z,13.82
2023-03-24T14:47:59.574Z,15.88
2023-03-24T14:50:28.276Z,14.68
2023-03-24T14:52:58.271Z,16.63
2023-03-24T14:55:26.373Z,15.30
2023-03-24T14:57:56.330Z,12.63
2023-03-24T15:00:25.890Z,12.80
2023-03-24T15:02:54.360Z,13.43
2023-03-24T15:05:25.231Z,12.35
2023-03-24T15:07:59.394Z,16.63
2023-03-24T15:10:26.732Z,15.32
2023-03-24T15:12:53.819Z,13.00
2023-03-24T15:15:23.514Z,17.65
2023-03-24T15:17:51.987Z,15.70
2023-03-24T15:20:26.609Z,13.68
2023-03-24T15:22:55.451Z,15.55
2023-03-24T15:25:29.508Z,12.15
2023-03-24T15:27:57.835Z,14.40
2023-03-24T15:30:25.762Z,13.45
2023-03-24T15:32:53.326Z,13.68
2023-03-24T15:35:21.936Z,13.35
2023-03-24T15:37:53.428Z,15.30
2023-03-24T15:40:26.904Z,12.32
2023-03-24T15:42:54.620Z,19.05
2023-03-24T15:45:28.184Z,14.20
2023-03-24T15:47:55.976Z,17.02
2023-03-24T15:50:35.520Z,13.43
2023-03-24T15:53:14.975Z,15.05
2023-03-24T15:55:43.446Z,16.33
2023-03-24T15:58:22.876Z,17.75
2023-03-24T16:00:53.155Z,16.40
2023-03-24T16:03:20.463Z,17.73
2023-03-24T16:05:49.020Z,18.80
2023-03-24T16:08:41.516Z,21.20
2023-03-24T16:11:13.118Z,15.75
2023-03-24T16:13:44.885Z,17.50
2023-03-24T16:16:14.884Z,17.90
2023-03-24T16:18:43.094Z,24.38
2023-03-24T16:21:30.839Z,21.10
2023-03-24T16:23:58.961Z,21.40
2023-03-24T16:26:30.249Z,25.00
2023-03-24T16:29:01.756Z,24.80
2023-03-24T16:31:36.243Z,20.15
2023-03-24T16:34:03.492Z,22.77
2023-03-24T16:36:30.698Z,21.13
2023-03-24T16:38:59.774Z,20.73
2023-03-24T16:41:26.962Z,21.83
2023-03-24T16:43:54.472Z,23.63
2023-03-24T16:46:27.512Z,21.80
2023-03-24T16:48:54.943Z,22.60
2023-03-24T16:51:22.235Z,20.80
2023-03-24T16:53:49.674Z,20.25
2023-03-24T16:56:18.004Z,21.08
2023-03-24T16:58:47.949Z,18.85
2023-03-24T17:01:26.938Z,22.15
2023-03-24T17:03:59.135Z,21.55
2023-03-24T17:06:27.062Z,20.10
2023-03-24T17:08:54.182Z,23.17
2023-03-24T17:11:26.256Z,23.88
2023-03-24T17:13:54.378Z,26.58
2023-03-24T17:16:22.846Z,21.63
2023-03-24T17:18:50.027Z,26.60
2023-03-24T17:21:18.963Z,25.05
2023-03-24T17:23:49.876Z,24.05
2023-03-24T17:26:17.485Z,21.92
2023-03-24T17:28:44.581Z,23.50
2023-03-24T17:31:11.896Z,25.50
2023-03-24T17:33:39.148Z,25.77
2023-03-24T17:36:06.529Z,28.67
2023-03-24T17:38:36.664Z,21.95
2023-03-24T17:41:04.836Z,24.63
2023-03-24T17:43:32.840Z,26.85
2023-03-24T17:46:01.305Z,24.48
2023-03-24T17:48:28.754Z,27.20
2023-03-24T17:50:56.853Z,26.58
2023-03-24T17:53:27.821Z,25.92
2023-03-24T17:55:56.004Z,25.98
2023-03-24T17:58:23.552Z,26.80
2023-03-24T18:00:51.170Z,26.85
2023-03-24T18:03:18.603Z,29.38
2023-03-24T18:05:45.863Z,26.73
2023-03-24T18:08:13.090Z,25.90
2023-03-24T18:10:40.325Z,26.48
2023-03-24T18:13:07.888Z,28.75
2023-03-24T18:15:35.342Z,25.73
2023-03-24T18:18:02.794Z,31.58
2023-03-24T18:20:29.898Z,28.60
2023-03-24T18:22:57.021Z,26.40
2023-03-24T18:25:24.202Z,24.95
2023-03-24T18:27:51.578Z,28.95
2023-03-24T18:30:18.815Z,33.10
2023-03-24T18:32:46.346Z,33.28
2023-03-24T18:35:16.756Z,31.77
2023-03-24T18:37:44.482Z,34.63
2023-03-24T18:40:11.804Z,35.55
2023-03-24T18:42:39.138Z,33.60
2023-03-24T18:45:07.276Z,34.90
2023-03-24T18:47:34.967Z,32.08
2023-03-24T18:50:02.165Z,34.30
2023-03-24T18:52:29.328Z,36.60
2023-03-24T18:54:56.779Z,31.38
2023-03-24T18:57:23.988Z,34.50
2023-03-24T18:59:51.334Z,28.15
2023-03-24T19:02:18.454Z,34.55
2023-03-24T19:04:46.196Z,25.77
2023-03-24T19:07:14.870Z,27.02
2023-03-24T19:09:43.122Z,29.58
2023-03-24T19:12:10.520Z,24.20
2023-03-24T19:14:38.082Z,25.38
2023-03-24T19:17:05.259Z,24.10
2023-03-24T19:19:32.446Z,22.85
2023-03-24T19:21:59.687Z,21.00
2023-03-24T19:24:27.035Z,22.10
2023-03-24T19:26:54.475Z,20.52
2023-03-24T19:29:22.051Z,23.08
2023-03-24T19:31:49.601Z,22.30
2023-03-24T19:34:17.842Z,21.58
2023-03-24T19:36:46.500Z,23.33
2023-03-24T19:39:17.460Z,21.80
2023-03-24T19:41:44.871Z,20.75
2023-03-24T19:44:12.083Z,26.95
2023-03-24T19:46:39.279Z,24.85
2023-03-24T19:49:06.385Z,22.33
2023-03-24T19:51:33.624Z,23.20
2023-03-24T19:54:00.794Z,23.30
2023-03-24T19:56:27.901Z,25.17
2023-03-24T19:58:55.372Z,22.88
2023-03-24T20:01:23.779Z,20.65
2023-03-24T20:03:51.496Z,27.10
2023-03-24T20:06:19.785Z,29.35
2023-03-24T20:08:47.161Z,25.45
2023-03-24T20:11:14.251Z,25.35
2023-03-24T20:13:41.507Z,26.80
2023-03-24T20:16:08.687Z,22.67
2023-03-24T20:18:36.413Z,26.67
2023-03-24T20:21:03.828Z,25.73
2023-03-24T20:23:30.944Z,22.65
2023-03-24T20:26:01.618Z,21.58
2023-03-24T20:28:28.964Z,24.77
2023-03-24T20:31:00.443Z,25.08
2023-03-24T20:33:30.706Z,25.38
2023-03-24T20:35:57.965Z,27.30
2023-03-24T20:38:25.306Z,26.17
2023-03-24T20:41:06.218Z,21.67
2023-03-24T20:43:35.648Z,23.63
2023-03-24T20:46:03.548Z,20.88
2023-03-24T20:48:31.031Z,22.08
2023-03-24T20:50:58.121Z,21.65
2023-03-24T20:53:26.543Z,20.08
2023-03-24T20:55:57.770Z,20.05
2023-03-24T20:58:24.927Z,21.00
2023-03-24T21:00:52.571Z,21.50
2023-03-24T21:03:20.025Z,21.50
2023-03-24T21:05:47.160Z,20.08
2023-03-24T21:08:14.233Z,25.20
2023-03-24T21:10:41.394Z,23.10
2023-03-24T21:13:08.719Z,21.50
2023-03-24T21:15:35.995Z,21.77
2023-03-24T21:18:03.365Z,18.98
2023-03-24T21:20:30.742Z,21.77
2023-03-24T21:22:58.008Z,19.20
2023-03-24T21:25:26.970Z,20.75
2023-03-24T21:27:54.979Z,22.50
2023-03-24T21:30:23.620Z,23.77
2023-03-24T21:32:51.863Z,28.85
2023-03-24T21:35:20.022Z,25.33
2023-03-24T21:37:47.704Z,24.67
2023-03-24T21:40:17.191Z,26.25
2023-03-24T21:42:45.629Z,23.88
2023-03-24T21:45:16.822Z,27.52
2023-03-24T21:50:19.090Z,25.00
2023-03-24T21:52:47.702Z,26.73
2023-03-24T21:55:16.027Z,23.85
2023-03-24T21:57:43.514Z,24.45
2023-03-24T22:00:14.191Z,25.33
2023-03-24T22:02:45.580Z,27.95
2023-03-24T22:05:13.955Z,27.23
2023-03-24T22:07:41.715Z,27.90
2023-03-24T22:10:09.672Z,29.63
2023-03-24T22:12:36.895Z,28.27
2023-03-24T22:15:04.385Z,26.92
2023-03-24T22:17:31.953Z,27.75
2023-03-24T22:19:59.050Z,28.55
2023-03-24T22:22:27.050Z,26.23
2023-03-24T22:24:54.215Z,27.65
2023-03-24T22:27:21.499Z,26.60
2023-03-24T22:29:48.711Z,26.10
2023-03-24T22:32:15.921Z,27.95
2023-03-24T22:34:43.049Z,25.10
2023-03-24T22:37:10.342Z,25.13
2023-03-24T22:39:37.495Z,23.77
2023-03-24T22:42:04.645Z,22.02
2023-03-24T22:44:32.273Z,22.33
2023-03-24T22:46:59.419Z,21.13
2023-03-24T22:49:27.004Z,21.50
2023-03-24T22:51:54.227Z,24.08
2023-03-24T22:54:21.678Z,23.60
2023-03-24T22:56:48.941Z,23.10
2023-03-24T22:59:16.179Z,23.95
2023-03-24T23:01:43.331Z,25.92
2023-03-24T23:04:10.744Z,24.55
2023-03-24T23:06:38.001Z,27.30
2023-03-24T23:09:05.994Z,23.63
2023-03-24T23:11:33.631Z,24.15
2023-03-24T23:14:06.935Z,20.55
2023-03-24T23:16:37.608Z,28.73
2023-03-24T23:19:06.361Z,22.00
2023-03-24T23:21:34.224Z,21.13
2023-03-24T23:24:01.527Z,23.15
2023-03-24T23:26:30.047Z,22.23
2023-03-24T23:28:57.933Z,24.10
2023-03-24T23:31:26.548Z,22.75
2023-03-24T23:33:56.024Z,23.58
2023-03-24T23:36:26.449Z,19.58
2023-03-24T23:38:54.606Z,25.95
2023-03-24T23:41:21.915Z,23.30
2023-03-24T23:43:50.283Z,25.27
2023-03-24T23:46:18.064Z,27.23
2023-03-24T23:48:45.342Z,22.50
2023-03-24T23:51:12.740Z,21.70
2023-03-24T23:53:39.872Z,24.48
2023-03-24T23:56:08.205Z,24.55
2023-03-24T23:58:36.591Z,24.48
